createdAt,value
2023-04-28T00:01:41.983Z,55.26
2023-04-28T00:04:09.214Z,53.39
2023-04-28T00:06:37.228Z,55.39
2023-04-28T00:09:04.158Z,56.69
2023-04-28T00:11:31.034Z,58.27
2023-04-28T00:13:57.855Z,58.42
2023-04-28T00:16:24.724Z,58.76
2023-04-28T00:18:52.142Z,58.01
2023-04-28T00:21:18.932Z,58.35
2023-04-28T00:23:46.017Z,57.63
2023-04-28T00:26:12.915Z,53.33
2023-04-28T00:28:42.621Z,52.47
2023-04-28T00:31:14.445Z,51.70
2023-04-28T00:33:41.602Z,50.84
2023-04-28T00:36:09.131Z,50.12
2023-04-28T00:38:37.197Z,49.42
2023-04-28T00:41:04.729Z,51.59
2023-04-28T00:43:31.684Z,50.27
2023-04-28T00:45:58.554Z,51.73
2023-04-28T00:48:25.689Z,51.85
2023-04-28T00:50:52.707Z,51.99
2023-04-28T00:53:19.570Z,55.51
2023-04-28T00:55:48.178Z,56.62
2023-04-28T00:58:15.204Z,57.92
2023-04-28T01:00:42.450Z,58.31
2023-04-28T01:03:09.657Z,58.13
2023-04-28T01:05:37.023Z,59.68
2023-04-28T01:08:04.828Z,58.16
2023-04-28T01:10:33.753Z,57.84
2023-04-28T01:13:07.902Z,58.12
2023-04-28T01:15:35.339Z,59.23
2023-04-28T01:18:02.143Z,59.44
2023-04-28T01:20:29.832Z,57.95
2023-04-28T01:22:56.949Z,57.66
2023-04-28T01:25:23.900Z,57.18
2023-04-28T01:27:51.164Z,58.73
2023-04-28T01:30:18.528Z,57.66
2023-04-28T01:32:45.425Z,59.22
2023-04-28T01:35:12.377Z,58.36
2023-04-28T01:37:39.266Z,59.26
2023-04-28T01:40:06.641Z,58.12
2023-04-28T01:42:33.415Z,59.25
2023-04-28T01:45:03.465Z,58.58
2023-04-28T01:47:30.362Z,57.09
2023-04-28T01:49:57.385Z,57.19
2023-04-28T01:52:24.498Z,57.08
2023-04-28T01:54:52.279Z,56.69
2023-04-28T01:57:20.505Z,55.95
2023-04-28T01:59:49.540Z,56.28
2023-04-28T02:02:16.683Z,56.17
2023-04-28T02:04:43.680Z,56.24
2023-04-28T02:07:10.577Z,56.80
2023-04-28T02:09:37.439Z,57.34
2023-04-28T02:12:04.528Z,56.00
2023-04-28T02:14:32.401Z,57.17
2023-04-28T02:16:59.658Z,58.50
2023-04-28T02:19:26.560Z,57.91
2023-04-28T02:21:53.654Z,57.97
2023-04-28T02:24:20.479Z,58.05
2023-04-28T02:26:47.356Z,57.21
2023-04-28T02:29:14.283Z,57.16
2023-04-28T02:31:41.257Z,56.91
2023-04-28T02:34:08.186Z,56.82
2023-04-28T02:36:35.124Z,57.54
2023-04-28T02:39:02.224Z,58.01
2023-04-28T02:41:31.168Z,58.17
2023-04-28T02:43:58.076Z,58.00
2023-04-28T02:46:24.949Z,58.39
2023-04-28T02:48:51.813Z,59.43
2023-04-28T02:51:18.708Z,59.22
2023-04-28T02:53:45.664Z,59.51
2023-04-28T02:56:13.288Z,58.23
2023-04-28T02:58:40.512Z,58.02
2023-04-28T03:01:07.515Z,57.87
2023-04-28T03:03:34.528Z,57.76
2023-04-28T03:06:01.510Z,56.88
2023-04-28T03:08:28.488Z,57.53
2023-04-28T03:10:55.710Z,57.43
2023-04-28T03:13:22.588Z,58.14
2023-04-28T03:15:50.149Z,56.70
2023-04-28T03:18:17.518Z,57.55
2023-04-28T03:20:45.125Z,57.03
2023-04-28T03:23:11.938Z,56.97
2023-04-28T03:25:38.764Z,56.66
2023-04-28T03:28:06.121Z,57.13
2023-04-28T03:30:32.942Z,57.09
2023-04-28T03:32:59.934Z,58.30
2023-04-28T03:35:27.092Z,58.65
2023-04-28T03:37:54.386Z,57.21
2023-04-28T03:40:21.368Z,57.46
2023-04-28T03:43:06.679Z,57.21
2023-04-28T03:45:37.830Z,56.70
2023-04-28T03:48:05.240Z,57.37
2023-04-28T03:50:32.799Z,55.30
2023-04-28T03:52:59.992Z,54.30
2023-04-28T03:55:27.585Z,54.89
2023-04-28T03:57:54.616Z,56.68
2023-04-28T04:00:21.765Z,55.20
2023-04-28T04:02:52.205Z,55.23
2023-04-28T04:05:19.355Z,53.71
2023-04-28T04:07:46.357Z,52.32
2023-04-28T04:10:13.253Z,52.89
2023-04-28T04:12:42.791Z,53.18
2023-04-28T04:15:12.814Z,52.90
2023-04-28T04:17:41.579Z,51.72
2023-04-28T04:20:09.051Z,50.62
2023-04-28T04:22:36.494Z,50.02
2023-04-28T04:25:03.633Z,50.67
2023-04-28T04:27:31.925Z,49.44
2023-04-28T04:30:03.403Z,51.13
2023-04-28T04:32:30.440Z,50.56
2023-04-28T04:34:57.591Z,50.73
2023-04-28T04:37:25.388Z,50.24
2023-04-28T04:39:58.153Z,51.09
2023-04-28T04:42:26.091Z,50.65
2023-04-28T04:45:12.491Z,48.88
2023-04-28T04:47:40.149Z,48.93
2023-04-28T04:50:07.947Z,48.41
2023-04-28T04:52:34.925Z,48.12
2023-04-28T04:55:02.547Z,48.19
2023-04-28T04:57:30.123Z,47.73
2023-04-28T05:00:26.420Z,48.58
2023-04-28T05:02:54.878Z,49.56
2023-04-28T05:05:23.205Z,48.53
2023-04-28T05:08:16.395Z,47.60
2023-04-28T05:10:43.285Z,48.47
2023-04-28T05:13:10.552Z,50.77
2023-04-28T05:15:38.135Z,49.25
2023-04-28T05:18:32.963Z,49.54
2023-04-28T05:20:59.908Z,50.13
2023-04-28T05:23:26.712Z,50.03
2023-04-28T05:25:53.677Z,49.94
2023-04-28T05:28:22.144Z,50.46
2023-04-28T05:30:50.827Z,49.74
2023-04-28T05:33:17.716Z,49.79
2023-04-28T05:35:44.722Z,46.95
2023-04-28T05:38:11.554Z,47.31
2023-04-28T05:40:38.615Z,48.20
2023-04-28T05:43:05.537Z,45.64
2023-04-28T05:45:32.436Z,42.94
2023-04-28T05:47:59.703Z,42.03
2023-04-28T05:50:27.035Z,44.63
2023-04-28T05:52:54.200Z,43.66
2023-04-28T05:55:22.115Z,43.25
2023-04-28T05:57:52.820Z,43.70
2023-04-28T06:00:21.823Z,43.80
2023-04-28T06:02:49.300Z,41.89
2023-04-28T06:05:16.727Z,42.74
2023-04-28T06:07:44.521Z,41.59
2023-04-28T06:10:11.729Z,40.52
2023-04-28T06:12:39.520Z,41.62
2023-04-28T06:15:06.908Z,41.49
2023-04-28T06:17:34.309Z,42.64
2023-04-28T06:20:01.493Z,42.71
2023-04-28T06:22:28.461Z,42.21
2023-04-28T06:24:55.288Z,43.34
2023-04-28T06:27:32.902Z,44.02
2023-04-28T06:29:59.806Z,44.11
2023-04-28T06:32:26.753Z,40.91
2023-04-28T06:34:53.632Z,40.01
2023-04-28T06:37:20.566Z,41.25
2023-04-28T06:39:48.028Z,40.67
2023-04-28T06:42:18.533Z,40.53
2023-04-28T06:44:52.700Z,42.40
2023-04-28T06:47:20.055Z,41.32
2023-04-28T06:49:50.264Z,40.63
2023-04-28T06:52:17.330Z,39.62
2023-04-28T06:54:44.282Z,37.63
2023-04-28T06:57:11.115Z,39.23
2023-04-28T06:59:38.323Z,38.62
2023-04-28T07:02:05.409Z,37.86
2023-04-28T07:04:32.334Z,38.91
2023-04-28T07:06:59.238Z,36.86
2023-04-28T07:09:26.149Z,38.84
2023-04-28T07:11:53.104Z,38.98
2023-04-28T07:14:20.193Z,37.82
2023-04-28T07:16:47.265Z,36.25
2023-04-28T07:19:14.151Z,38.26
2023-04-28T07:21:41.005Z,36.34
2023-04-28T07:24:07.930Z,35.95
2023-04-28T07:26:34.782Z,37.49
2023-04-28T07:29:02.109Z,35.67
2023-04-28T07:31:29.223Z,35.64
2023-04-28T07:33:56.619Z,37.28
2023-04-28T07:36:23.640Z,36.69
2023-04-28T07:38:50.714Z,36.42
2023-04-28T07:41:18.820Z,34.60
2023-04-28T07:43:45.705Z,35.69
2023-04-28T07:46:13.341Z,33.99
2023-04-28T07:48:40.314Z,34.35
2023-04-28T07:51:07.276Z,35.27
2023-04-28T07:53:34.266Z,35.84
2023-04-28T07:56:01.220Z,36.27
2023-04-28T07:58:28.207Z,35.65
2023-04-28T08:00:55.003Z,36.20
2023-04-28T08:03:22.255Z,35.21
2023-04-28T08:05:49.389Z,36.10
2023-04-28T08:08:16.333Z,35.73
2023-04-28T08:10:43.965Z,34.98
2023-04-28T08:13:10.883Z,35.40
2023-04-28T08:15:37.692Z,35.70
2023-04-28T08:18:04.655Z,35.14
2023-04-28T08:20:32.697Z,35.05
2023-04-28T08:22:59.848Z,35.48
2023-04-28T08:25:26.712Z,32.95
2023-04-28T08:27:57.211Z,33.12
2023-04-28T08:30:24.581Z,34.31
2023-04-28T08:32:51.540Z,33.77
2023-04-28T08:35:19.460Z,33.45
2023-04-28T08:37:47.834Z,32.96
2023-04-28T08:40:15.265Z,33.22
2023-04-28T08:42:42.566Z,31.84
2023-04-28T08:45:14.142Z,32.69
2023-04-28T08:47:45.894Z,33.67
2023-04-28T08:50:13.417Z,32.21
2023-04-28T08:52:42.356Z,33.69
2023-04-28T08:55:13.567Z,33.64
2023-04-28T08:57:44.725Z,33.17
2023-04-28T09:00:12.758Z,33.64
2023-04-28T09:02:42.425Z,34.37
2023-04-28T09:05:11.379Z,33.87
2023-04-28T09:07:38.753Z,32.79
2023-04-28T09:10:21.945Z,33.25
2023-04-28T09:12:51.829Z,34.21
2023-04-28T09:15:28.550Z,32.60
2023-04-28T09:17:56.008Z,32.30
2023-04-28T09:20:28.003Z,34.78
2023-04-28T09:22:55.893Z,33.46
2023-04-28T09:25:23.846Z,32.89
2023-04-28T09:27:50.873Z,34.04
2023-04-28T09:30:17.887Z,34.27
2023-04-28T09:32:44.941Z,35.71
2023-04-28T09:35:11.898Z,35.31
2023-04-28T09:37:38.813Z,34.30
2023-04-28T09:40:10.606Z,35.19
2023-04-28T09:42:40.008Z,33.76
2023-04-28T09:45:14.377Z,33.91
2023-04-28T09:47:43.583Z,33.18
2023-04-28T09:50:15.193Z,33.96
2023-04-28T09:52:56.897Z,33.34
2023-04-28T09:55:24.542Z,35.04
2023-04-28T09:57:55.168Z,33.29
2023-04-28T10:00:23.588Z,32.77
2023-04-28T10:02:52.072Z,33.74
2023-04-28T10:05:20.134Z,33.88
2023-04-28T10:07:47.299Z,33.80
2023-04-28T10:10:14.995Z,32.90
2023-04-28T10:12:42.241Z,33.77
2023-04-28T10:15:10.549Z,33.60
2023-04-28T10:17:39.137Z,34.28
2023-04-28T10:20:06.694Z,32.82
2023-04-28T10:23:01.535Z,33.52
2023-04-28T10:25:36.720Z,34.71
2023-04-28T10:28:08.945Z,35.09
2023-04-28T10:30:36.225Z,33.40
2023-04-28T10:33:09.669Z,35.16
2023-04-28T10:35:40.873Z,33.83
2023-04-28T10:38:15.041Z,35.12
2023-04-28T10:40:46.347Z,35.94
2023-04-28T10:43:25.681Z,36.20
2023-04-28T10:45:56.214Z,33.35
2023-04-28T10:48:46.608Z,34.41
2023-04-28T10:51:16.485Z,33.51
2023-04-28T10:53:47.130Z,35.64
2023-04-28T10:56:27.872Z,34.99
2023-04-28T10:58:56.138Z,34.90
2023-04-28T11:01:24.947Z,35.47
2023-04-28T11:04:00.169Z,36.39
2023-04-28T11:06:28.953Z,35.65
2023-04-28T11:08:57.860Z,36.09
2023-04-28T11:11:39.202Z,35.18
2023-04-28T11:14:18.464Z,36.06
2023-04-28T11:17:04.494Z,35.45
2023-04-28T11:19:31.350Z,35.65
2023-04-28T11:22:00.193Z,34.69
2023-04-28T11:24:29.473Z,32.80
2023-04-28T11:26:58.048Z,33.88
2023-04-28T11:29:33.505Z,34.36
2023-04-28T11:32:01.084Z,33.87
2023-04-28T11:34:28.261Z,32.57
2023-04-28T11:36:55.237Z,33.90
2023-04-28T11:39:32.394Z,33.92
2023-04-28T11:42:02.486Z,33.83
2023-04-28T11:44:31.281Z,32.65
2023-04-28T11:47:01.176Z,31.49
2023-04-28T11:49:30.582Z,32.77
2023-04-28T11:52:00.456Z,30.94
2023-04-28T11:54:29.233Z,32.51
2023-04-28T11:56:57.918Z,30.99
2023-04-28T11:59:38.275Z,31.95
2023-04-28T12:02:07.568Z,31.55
2023-04-28T12:04:42.580Z,33.47
2023-04-28T12:07:14.176Z,32.98
2023-04-28T12:09:44.586Z,33.96
2023-04-28T12:12:40.533Z,34.14
2023-04-28T12:15:12.785Z,34.12
2023-04-28T12:17:43.373Z,32.99
2023-04-28T12:20:12.793Z,35.30
2023-04-28T12:22:47.673Z,33.99
2023-04-28T12:25:18.069Z,34.25
2023-04-28T12:28:08.172Z,34.36
2023-04-28T12:30:42.640Z,33.78
2023-04-28T12:33:27.125Z,33.72
2023-04-28T12:35:56.160Z,33.51
2023-04-28T12:38:23.988Z,32.78
2023-04-28T12:40:50.895Z,32.72
2023-04-28T12:43:17.805Z,33.70
2023-04-28T12:45:44.664Z,33.57
2023-04-28T12:48:11.543Z,32.61
2023-04-28T12:50:38.416Z,32.69
2023-04-28T12:53:05.383Z,33.01
2023-04-28T12:55:32.487Z,32.44
2023-04-28T12:57:59.563Z,33.89
2023-04-28T13:00:26.549Z,34.56
2023-04-28T13:02:53.672Z,33.11
2023-04-28T13:05:20.713Z,33.43
2023-04-28T13:07:49.424Z,33.29
2023-04-28T13:10:16.766Z,32.63
2023-04-28T13:12:43.737Z,31.89
2023-04-28T13:15:11.303Z,31.62
2023-04-28T13:17:38.606Z,32.43
2023-04-28T13:20:07.063Z,31.77
2023-04-28T13:22:33.877Z,30.61
2023-04-28T13:25:00.713Z,31.61
2023-04-28T13:27:30.460Z,31.05
2023-04-28T13:29:59.414Z,31.83
2023-04-28T13:32:28.281Z,33.12
2023-04-28T13:34:55.196Z,31.78
2023-04-28T13:37:21.965Z,33.67
2023-04-28T13:39:48.852Z,32.62
2023-04-28T13:42:16.240Z,31.89
2023-04-28T13:44:43.292Z,31.99
2023-04-28T13:47:11.134Z,32.57
2023-04-28T13:49:39.745Z,33.14
2023-04-28T13:52:06.588Z,32.60
2023-04-28T13:54:33.430Z,31.22
2023-04-28T13:57:00.274Z,30.83
2023-04-28T13:59:27.402Z,32.07
2023-04-28T14:01:54.315Z,31.81
2023-04-28T14:04:21.400Z,31.86
2023-04-28T14:06:48.563Z,33.59
2023-04-28T14:09:15.734Z,32.53
2023-04-28T14:11:42.673Z,31.82
2023-04-28T14:14:09.427Z,31.11
2023-04-28T14:16:36.546Z,31.58
2023-04-28T14:19:03.430Z,32.99
2023-04-28T14:21:30.266Z,34.75
2023-04-28T14:23:57.026Z,33.02
2023-04-28T14:26:24.408Z,32.42
2023-04-28T14:28:51.243Z,32.43
2023-04-28T14:31:18.310Z,33.89
2023-04-28T14:33:45.189Z,32.94
2023-04-28T14:36:12.124Z,32.39
2023-04-28T14:38:40.289Z,32.93
2023-04-28T14:41:07.318Z,32.91
2023-04-28T14:43:34.897Z,31.01
2023-04-28T14:46:01.949Z,31.14
2023-04-28T14:48:28.835Z,32.21
2023-04-28T14:53:22.526Z,31.49
2023-04-28T14:55:49.905Z,30.77
2023-04-28T14:58:16.739Z,30.47
2023-04-28T15:00:43.812Z,31.28
2023-04-28T15:03:10.852Z,30.94
2023-04-28T15:05:37.708Z,30.96
2023-04-28T15:08:04.820Z,30.65
2023-04-28T15:10:38.579Z,30.84
2023-04-28T15:13:06.954Z,30.96
2023-04-28T15:15:33.811Z,32.19
2023-04-28T15:18:01.187Z,31.95
2023-04-28T15:20:30.629Z,31.12
2023-04-28T15:22:57.655Z,32.08
2023-04-28T15:25:24.693Z,33.20
2023-04-28T15:27:51.567Z,33.11
2023-04-28T15:30:19.555Z,32.50
2023-04-28T15:32:46.731Z,32.97
2023-04-28T15:35:13.809Z,32.85
2023-04-28T15:37:43.481Z,33.84
2023-04-28T15:40:21.419Z,33.94
2023-04-28T15:42:54.452Z,33.77
2023-04-28T15:45:22.386Z,33.88
2023-04-28T15:47:50.731Z,34.15
2023-04-28T15:50:20.401Z,32.99
2023-04-28T15:52:50.130Z,33.83
2023-04-28T15:55:18.748Z,33.11
2023-04-28T15:57:46.341Z,33.08
2023-04-28T16:00:17.036Z,33.58
2023-04-28T16:02:45.008Z,34.01
2023-04-28T16:05:12.924Z,34.42
2023-04-28T16:07:41.240Z,33.62
2023-04-28T16:10:13.126Z,33.55
2023-04-28T16:12:41.172Z,35.29
2023-04-28T16:15:10.287Z,34.85
2023-04-28T16:17:38.653Z,35.30
2023-04-28T16:20:07.238Z,36.08
2023-04-28T16:22:35.119Z,36.21
2023-04-28T16:25:03.980Z,35.63
2023-04-28T16:27:32.234Z,35.96
2023-04-28T16:29:59.576Z,35.33
2023-04-28T16:32:27.010Z,35.10
2023-04-28T16:34:57.506Z,36.34
2023-04-28T16:37:24.357Z,35.53
2023-04-28T16:39:51.719Z,36.96
2023-04-28T16:42:21.037Z,37.93
2023-04-28T16:44:48.773Z,38.45
2023-04-28T16:47:16.896Z,37.68
2023-04-28T16:49:43.756Z,38.28
2023-04-28T16:52:10.746Z,38.07
2023-04-28T16:54:37.640Z,38.15
2023-04-28T16:57:05.093Z,37.72
2023-04-28T16:59:33.376Z,38.74
2023-04-28T17:02:01.971Z,40.17
2023-04-28T17:04:29.063Z,39.88
2023-04-28T17:06:56.498Z,39.71
2023-04-28T17:09:23.499Z,40.38
2023-04-28T17:11:50.350Z,40.02
2023-04-28T17:14:17.895Z,40.98
2023-04-28T17:16:44.895Z,40.32
2023-04-28T17:19:12.365Z,40.56
2023-04-28T17:21:39.283Z,41.01
2023-04-28T17:24:06.440Z,40.29
2023-04-28T17:26:33.311Z,41.21
2023-04-28T17:29:00.490Z,41.16
2023-04-28T17:31:29.039Z,41.53
2023-04-28T17:33:58.681Z,42.14
2023-04-28T17:36:28.809Z,41.58
2023-04-28T17:38:55.914Z,41.81
2023-04-28T17:41:23.169Z,42.00
2023-04-28T17:43:53.893Z,42.16
2023-04-28T17:46:21.916Z,42.36
2023-04-28T17:48:49.166Z,42.22
2023-04-28T17:51:16.865Z,42.66
2023-04-28T17:53:46.262Z,42.28
2023-04-28T17:56:13.087Z,43.06
2023-04-28T17:58:39.929Z,42.88
2023-04-28T18:01:08.236Z,43.44
2023-04-28T18:03:36.774Z,42.85
2023-04-28T18:06:07.785Z,43.22
2023-04-28T18:08:36.601Z,44.16
2023-04-28T18:11:03.981Z,44.11
2023-04-28T18:13:31.037Z,45.14
2023-04-28T18:15:58.064Z,44.97
2023-04-28T18:18:25.512Z,45.37
2023-04-28T18:21:00.430Z,44.81
2023-04-28T18:23:27.469Z,45.59
2023-04-28T18:25:54.449Z,45.49
2023-04-28T18:28:21.505Z,46.11
2023-04-28T18:30:48.369Z,46.35
2023-04-28T18:33:15.189Z,45.97
2023-04-28T18:35:41.984Z,46.34
2023-04-28T18:38:08.787Z,47.75
2023-04-28T18:40:38.676Z,47.63
2023-04-28T18:43:06.631Z,47.67
2023-04-28T18:45:35.794Z,47.86
2023-04-28T18:48:04.609Z,47.62
2023-04-28T18:50:33.266Z,47.37
2023-04-28T18:53:01.278Z,46.05
2023-04-28T18:55:28.228Z,46.01
2023-04-28T18:57:55.156Z,46.22
2023-04-28T19:00:22.447Z,45.46
2023-04-28T19:02:49.407Z,45.95
2023-04-28T19:05:16.394Z,45.79
2023-04-28T19:07:43.203Z,46.74
2023-04-28T19:10:10.785Z,46.23
2023-04-28T19:12:37.701Z,46.73
2023-04-28T19:15:06.075Z,46.87
2023-04-28T19:17:33.239Z,47.13
2023-04-28T19:20:00.289Z,48.99
2023-04-28T19:22:36.158Z,50.27
2023-04-28T19:25:04.592Z,50.93
2023-04-28T19:27:33.743Z,50.58
2023-04-28T19:30:02.093Z,50.72
2023-04-28T19:32:29.395Z,50.13
2023-04-28T19:34:56.272Z,50.54
2023-04-28T19:37:24.149Z,51.03
2023-04-28T19:39:51.433Z,50.27
2023-04-28T19:42:19.104Z,50.58
2023-04-28T19:44:47.355Z,50.53
2023-04-28T19:47:22.595Z,51.38
2023-04-28T19:49:51.230Z,51.47
2023-04-28T19:52:21.014Z,51.69
2023-04-28T19:57:01.840Z,51.84
2023-04-28T19:59:28.810Z,51.37
2023-04-28T20:01:55.626Z,52.27
2023-04-28T20:04:22.654Z,52.85
2023-04-28T20:06:49.647Z,52.75
2023-04-28T20:09:16.760Z,53.37
2023-04-28T20:11:43.647Z,55.36
2023-04-28T20:14:10.435Z,53.93
2023-04-28T20:16:37.559Z,54.98
2023-04-28T20:19:04.485Z,54.81
2023-04-28T20:21:31.797Z,54.29
2023-04-28T20:23:58.626Z,55.56
2023-04-28T20:26:25.673Z,54.44
2023-04-28T20:28:54.273Z,54.68
2023-04-28T20:31:21.182Z,54.70
2023-04-28T20:33:48.128Z,53.98
2023-04-28T20:36:15.020Z,53.71
2023-04-28T20:38:43.547Z,53.99
2023-04-28T20:41:11.044Z,57.23
2023-04-28T20:43:38.529Z,55.77
2023-04-28T20:46:13.498Z,55.92
2023-04-28T20:48:40.903Z,56.47
2023-04-28T20:51:07.872Z,55.47
2023-04-28T20:53:37.598Z,56.07
2023-04-28T20:56:04.839Z,55.46
2023-04-28T20:58:31.651Z,57.13
2023-04-28T21:00:59.233Z,57.15
2023-04-28T21:03:26.655Z,57.38
2023-04-28T21:05:53.664Z,57.91
2023-04-28T21:08:20.512Z,58.76
2023-04-28T21:10:47.380Z,57.84
2023-04-28T21:13:14.289Z,58.12
2023-04-28T21:15:41.590Z,58.65
2023-04-28T21:18:08.578Z,59.33
2023-04-28T21:20:35.854Z,58.75
2023-04-28T21:23:02.925Z,57.44
2023-04-28T21:25:30.115Z,57.79
2023-04-28T21:27:57.857Z,58.52
2023-04-28T21:30:25.845Z,57.10
2023-04-28T21:32:52.725Z,56.70
2023-04-28T21:35:19.660Z,56.78
2023-04-28T21:37:46.485Z,56.51
2023-04-28T21:40:14.082Z,55.51
2023-04-28T21:42:40.878Z,56.07
2023-04-28T21:45:09.505Z,56.97
2023-04-28T21:47:36.415Z,55.29
2023-04-28T21:50:03.379Z,55.80
2023-04-28T21:52:30.481Z,56.20
2023-04-28T21:54:57.352Z,56.00
2023-04-28T21:57:24.210Z,57.57
2023-04-28T21:59:51.237Z,56.52
2023-04-28T22:02:18.566Z,58.14
2023-04-28T22:04:45.813Z,59.43
2023-04-28T22:07:12.658Z,58.93
2023-04-28T22:09:39.562Z,59.99
2023-04-28T22:12:06.395Z,59.64
2023-04-28T22:17:03.005Z,59.93
2023-04-28T22:19:29.781Z,59.29
2023-04-28T22:21:56.841Z,59.62
2023-04-28T22:24:23.690Z,61.78
2023-04-28T22:26:50.540Z,60.73
2023-04-28T22:29:17.449Z,59.13
2023-04-28T22:31:44.500Z,58.61
2023-04-28T22:34:11.344Z,58.56
2023-04-28T22:36:38.281Z,58.45
2023-04-28T22:39:05.785Z,58.78
2023-04-28T22:41:32.728Z,58.52
2023-04-28T22:43:59.604Z,57.95
2023-04-28T22:46:26.445Z,59.58
2023-04-28T22:48:53.295Z,58.90
2023-04-28T22:51:20.451Z,60.63
2023-04-28T22:53:48.481Z,60.32
2023-04-28T22:56:15.995Z,60.62
2023-04-28T22:58:42.823Z,61.69
2023-04-28T23:01:09.776Z,59.57
2023-04-28T23:03:38.406Z,61.32
2023-04-28T23:06:05.554Z,61.06
2023-04-28T23:08:32.495Z,60.87
2023-04-28T23:10:59.309Z,60.00
2023-04-28T23:13:26.378Z,60.70
2023-04-28T23:15:53.445Z,60.27
2023-04-28T23:18:20.885Z,61.09
2023-04-28T23:20:48.874Z,59.93
2023-04-28T23:23:16.136Z,60.85
2023-04-28T23:25:43.410Z,60.84
2023-04-28T23:28:10.513Z,61.20
2023-04-28T23:30:37.376Z,59.67
2023-04-28T23:33:04.614Z,61.01
2023-04-28T23:35:33.223Z,60.71
2023-04-28T23:38:00.153Z,60.70
2023-04-28T23:40:27.539Z,61.70
2023-04-28T23:42:54.483Z,61.89
2023-04-28T23:45:21.330Z,60.87
2023-04-28T23:47:48.192Z,61.21
2023-04-28T23:50:15.194Z,61.56
2023-04-28T23:52:42.847Z,60.31
2023-04-28T23:55:10.747Z,60.40
2023-04-28T23:57:38.559Z,61.52
